Eckard, Illinois
Current Conditions -  °F | °C
As of 1:54 PM on Thursday 30 Oct 2014 (Local Time) from KPIA Reporting Station
Overcast Overcast  
Wind Chill: 50°   Ceiling: 6000
Heat Index: 50°   Visibility: 10mi
Dew Point: 39°   Wind: 5mph
Humidity: 66%   Direction: 100°E
Pressure: 30.07"   Gusts: NA
Location:  40.2774°N, 90.0095°W
Report Text: KPIA 301854Z 10004KT 10SM OVC060 10/04 A3007 RMK AO2 SLP186 T01000039
Loading
Personal Weather Stations






























Interactive Weather Map
Tropical Storm Tracking
New forecast layout! Learn more

10-Day Weather Forecast

Advertisements
Track Severe Weather on mobile